Aviation Digital Data Service (ADDS)

Output produced by TAFs form (0826 UTC 04 July 2015)
found at http://www.aviationweather.gov/adds/tafs/
 
KALB 040521Z 0406/0506 00000KT P6SM SCT200 OVC250 
     FM041000 17003KT P6SM VCSH SCT060 OVC120 
     FM041300 17004KT P6SM -SHRA BKN060 OVC090 
     FM041500 18005KT 5SM -SHRA BR BKN035 OVC050 
     FM042100 18005KT P6SM VCSH BKN035 OVC050 
     FM050200 17003KT P6SM SCT035 SCT050